Time;durP1;ratioP1;P1;durP2;ratioP2;P2;SDS_P1;SDS_P2;PMS_P1;PMS_P2;Temp;Humidity;BMP_temperature;BMP_pressure;BME280_temperature;BME280_humidity;BME280_pressure;Samples;Min_cycle;Max_cycle;Signal;HPM_P1;HPM_P2
2023/10/13 00:00:40;;;;;;;3.95;2.28;;;;;;;;;;5082466;28;20784;-81
2023/10/13 00:03:06;;;;;;;1.30;1.20;;;;;;;;;;5072392;28;20055;-80
2023/10/13 00:05:33;;;;;;;2.17;1.75;;;;;;;;;;5073840;28;20036;-80
2023/10/13 00:08:03;;;;;;;2.47;1.48;;;;;;;;;;5071251;28;20032;-81
2023/10/13 00:10:33;;;;;;;3.33;1.67;;;;;;;;;;5078586;28;20556;-81
2023/10/13 00:13:18;;;;;;;1.45;1.23;;;;;;;;;;5073820;28;20033;-81
2023/10/13 00:15:57;;;;;;;3.05;2.13;;;;;;;;;;5074059;28;20111;-81
2023/10/13 00:18:34;;;;;;;2.90;1.60;;;;;;;;;;5074675;28;20025;-82
2023/10/13 00:21:00;;;;;;;3.28;2.17;;;;;;;;;;5069679;28;20468;-81
2023/10/13 00:23:28;;;;;;;5.72;3.00;;;;;;;;;;5072674;28;20484;-80
2023/10/13 00:25:57;;;;;;;1.88;1.50;;;;;;;;;;5075091;28;20186;-82
2023/10/13 00:28:26;;;;;;;2.55;1.55;;;;;;;;;;5074105;28;20020;-81
2023/10/13 00:30:59;;;;;;;;;;;;;;;;;;5071309;28;20129;-82
2023/10/13 00:33:25;;;;;;;3.05;2.25;;;;;;;;;;5073159;28;19920;-82
2023/10/13 00:35:52;;;;;;;2.92;2.25;;;;;;;;;;5074230;28;20025;-82
2023/10/13 00:38:19;;;;;;;3.05;2.05;;;;;;;;;;5084151;28;20036;-81
2023/10/13 00:40:51;;;;;;;4.45;1.63;;;;;;;;;;5074708;28;20025;-81
2023/10/13 00:48:33;;;;;;;1.30;1.20;;;;;;;;;;5072942;28;20048;-82
2023/10/13 00:51:02;;;;;;;1.08;0.95;;;;;;;;;;5072728;28;20041;-81
2023/10/13 00:53:30;;;;;;;4.50;1.52;;;;;;;;;;5072672;28;20028;-80
2023/10/13 00:55:56;;;;;;;4.10;1.33;;;;;;;;;;5077388;28;20028;-81
2023/10/13 00:58:22;;;;;;;1.63;1.33;;;;;;;;;;5074180;28;20074;-81
2023/10/13 01:00:56;;;;;;;3.03;1.50;;;;;;;;;;5070174;28;20024;-81
2023/10/13 01:03:26;;;;;;;3.50;1.98;;;;;;;;;;5069003;28;20024;-81
2023/10/13 01:05:55;;;;;;;;;;;;;;;;;;5072186;28;20033;-81
2023/10/13 01:08:37;;;;;;;3.50;2.38;;;;;;;;;;5072711;28;20000;-80
2023/10/13 01:11:06;;;;;;;4.88;2.53;;;;;;;;;;5068110;28;20040;-81
2023/10/13 01:13:35;;;;;;;1.70;1.27;;;;;;;;;;5072773;28;20025;-82
2023/10/13 01:16:01;;;;;;;4.00;1.70;;;;;;;;;;5071223;28;20074;-81
2023/10/13 01:18:28;;;;;;;7.65;2.03;;;;;;;;;;5081109;28;20028;-81
2023/10/13 01:20:58;;;;;;;2.50;1.45;;;;;;;;;;5078925;28;20103;-81
2023/10/13 01:23:28;;;;;;;1.90;1.10;;;;;;;;;;5069890;28;20354;-80
2023/10/13 01:25:55;;;;;;;0.85;0.80;;;;;;;;;;5071363;28;20387;-82
2023/10/13 01:28:21;;;;;;;2.92;1.63;;;;;;;;;;5075681;28;20521;-82
2023/10/13 01:30:50;;;;;;;4.70;2.53;;;;;;;;;;5072958;28;20495;-83
2023/10/13 01:33:28;;;;;;;2.83;1.85;;;;;;;;;;5075063;28;20464;-80
2023/10/13 01:35:58;;;;;;;4.18;2.38;;;;;;;;;;5075072;28;20024;-82
2023/10/13 01:38:27;;;;;;;3.78;1.63;;;;;;;;;;5074307;28;20024;-82
2023/10/13 01:40:52;;;;;;;2.50;1.77;;;;;;;;;;5072295;28;20048;-81
2023/10/13 01:43:18;;;;;;;2.22;1.25;;;;;;;;;;5069998;28;20055;-82
2023/10/13 01:45:49;;;;;;;2.05;1.48;;;;;;;;;;5075852;28;20090;-80
2023/10/13 01:48:17;;;;;;;1.55;1.35;;;;;;;;;;5073274;28;20044;-81
2023/10/13 01:50:47;;;;;;;6.03;1.20;;;;;;;;;;5074351;28;20484;-84
2023/10/13 01:53:17;;;;;;;2.15;1.48;;;;;;;;;;5084417;28;20487;-82
2023/10/13 01:55:43;;;;;;;3.33;1.92;;;;;;;;;;5077839;28;20038;-81
2023/10/13 01:58:16;;;;;;;1.15;1.02;;;;;;;;;;5080158;28;20097;-81
2023/10/13 02:00:43;;;;;;;1.58;1.38;;;;;;;;;;5090236;28;20111;-80
2023/10/13 02:03:16;;;;;;;4.18;1.60;;;;;;;;;;5078271;28;20024;-80
2023/10/13 02:05:48;;;;;;;1.90;1.73;;;;;;;;;;5080459;28;20531;-83
2023/10/13 02:08:24;;;;;;;1.70;1.13;;;;;;;;;;5082055;28;20027;-82
2023/10/13 02:10:57;;;;;;;2.60;1.60;;;;;;;;;;5071322;28;20062;-80
2023/10/13 02:13:24;;;;;;;2.00;1.35;;;;;;;;;;5077618;28;20031;-80
2023/10/13 02:15:53;;;;;;;1.55;1.33;;;;;;;;;;5074382;28;20047;-80
2023/10/13 02:18:34;;;;;;;2.55;1.50;;;;;;;;;;5074989;28;20477;-79
2023/10/13 02:21:12;;;;;;;1.65;1.50;;;;;;;;;;5076343;28;20093;-80
2023/10/13 02:23:43;;;;;;;2.03;1.90;;;;;;;;;;5073459;28;20024;-81
2023/10/13 02:28:56;;;;;;;3.08;1.98;;;;;;;;;;5078596;28;20090;-81
2023/10/13 02:31:24;;;;;;;1.33;1.23;;;;;;;;;;5073199;28;20128;-81
2023/10/13 02:33:49;;;;;;;4.80;1.42;;;;;;;;;;5075211;28;20078;-81
2023/10/13 02:36:22;;;;;;;1.17;1.08;;;;;;;;;;5078502;28;20475;-81
2023/10/13 02:38:50;;;;;;;1.02;0.90;;;;;;;;;;5073424;28;20040;-81
2023/10/13 02:41:28;;;;;;;2.28;1.83;;;;;;;;;;5078433;28;20484;-80
2023/10/13 02:43:55;;;;;;;1.83;1.52;;;;;;;;;;5097491;28;20102;-81
2023/10/13 02:46:21;;;;;;;3.33;1.83;;;;;;;;;;5079392;28;20044;-80
2023/10/13 02:48:53;;;;;;;3.33;1.70;;;;;;;;;;5080311;28;20059;-81
2023/10/13 02:51:31;;;;;;;2.63;1.17;;;;;;;;;;5075001;28;20169;-80
2023/10/13 02:54:02;;;;;;;2.53;1.85;;;;;;;;;;5071811;28;21660;-81
2023/10/13 02:56:28;;;;;;;3.58;2.55;;;;;;;;;;5078603;28;20095;-81
2023/10/13 02:58:56;;;;;;;8.68;2.55;;;;;;;;;;5079246;28;20485;-81
2023/10/13 03:01:28;;;;;;;2.35;1.60;;;;;;;;;;5083727;28;20052;-80
2023/10/13 03:03:55;;;;;;;3.00;1.67;;;;;;;;;;5081117;28;20467;-81
2023/10/13 03:06:35;;;;;;;3.03;2.10;;;;;;;;;;5072901;28;20029;-80
2023/10/13 03:09:21;;;;;;;1.58;1.40;;;;;;;;;;5072270;28;20110;-81
2023/10/13 03:11:48;;;;;;;3.13;1.48;;;;;;;;;;5073515;28;20028;-81
2023/10/13 03:14:24;;;;;;;2.47;1.75;;;;;;;;;;5072991;28;20150;-81
2023/10/13 03:17:14;;;;;;;4.20;2.40;;;;;;;;;;5075759;28;20032;-81
2023/10/13 03:19:46;;;;;;;2.15;1.05;;;;;;;;;;5077330;28;20058;-81
2023/10/13 03:22:12;;;;;;;5.25;2.95;;;;;;;;;;5077485;28;20020;-80
2023/10/13 03:24:44;;;;;;;4.32;1.80;;;;;;;;;;5077609;28;20115;-81
2023/10/13 03:27:11;;;;;;;3.38;2.17;;;;;;;;;;5073181;28;20087;-81
2023/10/13 03:29:43;;;;;;;13.70;3.58;;;;;;;;;;5073853;28;20055;-81
2023/10/13 03:32:13;;;;;;;3.97;2.28;;;;;;;;;;5073926;28;20033;-83
2023/10/13 03:34:46;;;;;;;;;;;;;;;;;;5080189;28;20036;-82
2023/10/13 03:37:18;;;;;;;4.25;2.72;;;;;;;;;;5077624;28;20411;-81
2023/10/13 03:39:45;;;;;;;5.07;2.25;;;;;;;;;;5071811;28;20054;-81
2023/10/13 03:42:18;;;;;;;2.83;1.92;;;;;;;;;;5078397;28;20036;-81
2023/10/13 03:44:46;;;;;;;2.13;1.52;;;;;;;;;;5075287;28;20032;-82
2023/10/13 03:47:18;;;;;;;2.05;1.60;;;;;;;;;;5073018;28;20123;-81
2023/10/13 03:49:51;;;;;;;5.00;1.60;;;;;;;;;;5077865;28;20024;-81
2023/10/13 03:52:22;;;;;;;3.85;2.13;;;;;;;;;;5078612;28;20043;-81
2023/10/13 03:54:51;;;;;;;7.55;1.77;;;;;;;;;;5080827;28;20032;-81
2023/10/13 03:57:16;;;;;;;5.03;2.60;;;;;;;;;;5077715;28;20028;-81
2023/10/13 03:59:46;;;;;;;2.22;2.03;;;;;;;;;;5078729;28;20157;-81
2023/10/13 04:02:17;;;;;;;4.82;2.33;;;;;;;;;;5074131;28;20022;-79
2023/10/13 04:15:14;;;;;;;2.08;1.42;;;;;;;;;;5087521;28;20032;-79
2023/10/13 04:17:24;;;;;;;2.67;1.90;;;;;;;;;;5075891;28;20028;-79
2023/10/13 04:41:42;;;;;;;7.03;2.93;;;;;;;;;;5072859;28;20075;-82
2023/10/13 04:47:07;;;;;;;5.03;2.83;;;;;;;;;;5076534;28;20069;-81
2023/10/13 06:29:36;;;;;;;9.40;3.60;;;;;;;;;;5071033;28;20031;-83
2023/10/13 06:32:10;;;;;;;14.55;4.55;;;;;;;;;;5071143;28;20488;-83
2023/10/13 06:35:22;;;;;;;10.05;4.07;;;;;;;;;;5081244;28;20120;-85
2023/10/13 06:39:56;;;;;;;4.22;3.67;;;;;;;;;;5077377;28;20059;-83
2023/10/13 06:42:28;;;;;;;6.13;4.10;;;;;;;;;;5076921;28;20078;-85
2023/10/13 06:44:54;;;;;;;10.40;4.25;;;;;;;;;;5079646;28;20036;-83
2023/10/13 06:47:21;;;;;;;5.90;3.65;;;;;;;;;;5077403;28;20423;-82
2023/10/13 06:49:51;;;;;;;10.38;4.95;;;;;;;;;;5075828;28;20477;-82
2023/10/13 06:52:16;;;;;;;5.28;3.72;;;;;;;;;;5077028;28;20105;-79
2023/10/13 06:54:43;;;;;;;6.47;4.30;;;;;;;;;;5073661;28;20028;-83
2023/10/13 06:57:14;;;;;;;8.32;5.05;;;;;;;;;;5078939;28;20038;-83
2023/10/13 06:59:40;;;;;;;7.35;3.78;;;;;;;;;;5084658;28;20024;-82
2023/10/13 07:02:06;;;;;;;9.00;4.18;;;;;;;;;;5071782;28;20036;-82
2023/10/13 07:04:32;;;;;;;10.43;4.60;;;;;;;;;;5077136;28;20032;-84
2023/10/13 07:07:00;;;;;;;7.15;4.18;;;;;;;;;;5076866;28;20028;-83
2023/10/13 07:12:06;;;;;;;9.07;5.00;;;;;;;;;;5071950;28;20081;-83
2023/10/13 07:14:33;;;;;;;8.15;4.22;;;;;;;;;;5075948;28;20123;-82
2023/10/13 07:17:05;;;;;;;10.88;4.35;;;;;;;;;;5079871;28;20028;-82
2023/10/13 07:19:33;;;;;;;10.52;3.60;;;;;;;;;;5079173;28;20036;-82
2023/10/13 07:22:18;;;;;;;14.23;4.43;;;;;;;;;;5086999;28;20120;-82
2023/10/13 07:24:48;;;;;;;7.38;3.28;;;;;;;;;;5076533;28;20039;-82
2023/10/13 07:27:25;;;;;;;9.30;4.85;;;;;;;;;;5073245;28;20054;-82
2023/10/13 07:30:14;;;;;;;10.10;3.70;;;;;;;;;;5083797;28;20032;-81
2023/10/13 07:32:44;;;;;;;8.57;4.60;;;;;;;;;;5077070;28;20383;-82
2023/10/13 07:35:15;;;;;;;7.60;4.25;;;;;;;;;;5077673;28;20060;-82
2023/10/13 07:37:42;;;;;;;14.02;5.75;;;;;;;;;;5072243;28;20024;-81
2023/10/13 07:40:27;;;;;;;12.25;4.68;;;;;;;;;;5081182;28;20028;-82
2023/10/13 07:43:10;;;;;;;15.05;5.03;;;;;;;;;;5077502;28;20093;-81
2023/10/13 07:45:40;;;;;;;12.93;5.00;;;;;;;;;;5085316;28;20029;-82
2023/10/13 07:48:20;;;;;;;7.85;4.40;;;;;;;;;;5070504;28;20060;-83
2023/10/13 07:51:11;;;;;;;10.48;5.22;;;;;;;;;;5080136;28;20062;-82
2023/10/13 07:53:40;;;;;;;5.63;3.83;;;;;;;;;;5080863;28;20066;-82
2023/10/13 07:56:11;;;;;;;15.35;5.45;;;;;;;;;;5082579;28;20107;-83
2023/10/13 07:58:53;;;;;;;9.10;4.35;;;;;;;;;;5076962;28;20028;-82
2023/10/13 08:01:21;;;;;;;5.95;3.40;;;;;;;;;;5080343;28;20475;-82
2023/10/13 08:03:49;;;;;;;6.20;3.42;;;;;;;;;;5074052;28;20029;-82
2023/10/13 08:08:43;;;;;;;6.63;3.83;;;;;;;;;;5076608;28;20063;-83
2023/10/13 08:13:54;;;;;;;7.63;4.25;;;;;;;;;;5079321;28;20034;-82
2023/10/13 08:16:23;;;;;;;10.63;6.40;;;;;;;;;;5080941;28;20031;-82
2023/10/13 08:18:50;;;;;;;7.57;5.43;;;;;;;;;;5076511;28;20036;-82
2023/10/13 08:21:18;;;;;;;5.38;3.83;;;;;;;;;;5079400;28;20028;-82
2023/10/13 08:32:19;;;;;;;5.45;4.18;;;;;;;;;;5072289;28;20024;-84
2023/10/13 08:50:48;;;;;;;4.20;3.33;;;;;;;;;;5081759;28;20129;-83
2023/10/13 08:56:05;;;;;;;8.73;2.97;;;;;;;;;;5076770;28;20032;-82
2023/10/13 09:04:21;;;;;;;8.70;4.57;;;;;;;;;;5077925;28;20044;-84
2023/10/13 09:12:09;;;;;;;9.48;3.53;;;;;;;;;;5071313;28;20035;-83
2023/10/13 09:14:47;;;;;;;12.18;4.60;;;;;;;;;;5080457;28;20383;-82
2023/10/13 09:19:57;;;;;;;6.07;4.50;;;;;;;;;;5075428;28;20029;-83
2023/10/13 09:22:27;;;;;;;6.32;3.63;;;;;;;;;;5077656;28;20033;-81
2023/10/13 09:25:00;;;;;;;4.90;3.08;;;;;;;;;;5074312;28;20032;-83
2023/10/13 09:27:32;;;;;;;7.10;3.90;;;;;;;;;;5079964;28;20028;-81
2023/10/13 09:30:24;;;;;;;6.82;4.30;;;;;;;;;;5078348;28;20482;-82
2023/10/13 09:33:08;;;;;;;4.93;3.58;;;;;;;;;;5076076;28;20387;-82
2023/10/13 09:35:36;;;;;;;5.97;3.63;;;;;;;;;;5079905;28;20025;-82
2023/10/13 09:38:03;;;;;;;7.90;4.55;;;;;;;;;;5069598;28;20043;-84
2023/10/13 09:42:59;;;;;;;4.63;3.67;;;;;;;;;;5073696;28;20142;-83
2023/10/13 09:45:36;;;;;;;6.10;3.30;;;;;;;;;;5075897;28;20412;-82
2023/10/13 09:48:06;;;;;;;3.22;2.72;;;;;;;;;;5069507;28;20036;-85
2023/10/13 09:50:37;;;;;;;7.20;3.35;;;;;;;;;;5072050;28;20372;-87
2023/10/13 09:53:10;;;;;;;7.50;2.85;;;;;;;;;;5072520;28;20025;-84
2023/10/13 09:55:40;;;;;;;7.38;2.47;;;;;;;;;;5070181;28;20108;-87
2023/10/13 09:58:11;;;;;;;5.95;3.67;;;;;;;;;;5079608;28;20115;-86
2023/10/13 10:01:06;;;;;;;3.85;2.60;;;;;;;;;;5073185;28;20029;-87
2023/10/13 10:06:03;;;;;;;10.45;3.55;;;;;;;;;;5075435;28;20024;-85
2023/10/13 10:08:38;;;;;;;3.40;2.20;;;;;;;;;;5076200;28;20504;-84
2023/10/13 10:11:04;;;;;;;8.32;3.05;;;;;;;;;;5081569;28;20024;-86
2023/10/13 10:14:04;;;;;;;5.00;3.00;;;;;;;;;;5085396;28;20020;-86
2023/10/13 10:16:46;;;;;;;3.72;2.20;;;;;;;;;;5071899;28;20039;-84
2023/10/13 10:19:12;;;;;;;4.60;2.35;;;;;;;;;;5082841;28;20089;-85
2023/10/13 10:21:40;;;;;;;2.20;1.50;;;;;;;;;;5077648;28;20087;-83
2023/10/13 10:24:33;;;;;;;1.48;1.00;;;;;;;;;;5069362;28;20027;-84
2023/10/13 10:27:04;;;;;;;2.17;1.38;;;;;;;;;;5079448;28;20020;-84
2023/10/13 10:29:32;;;;;;;1.73;1.40;;;;;;;;;;5080915;28;20035;-86
2023/10/13 10:31:58;;;;;;;6.68;0.65;;;;;;;;;;5082703;28;20028;-85
2023/10/13 10:34:32;;;;;;;0.93;0.47;;;;;;;;;;5077247;28;20073;-84
2023/10/13 10:36:58;;;;;;;1.05;0.85;;;;;;;;;;5080536;28;20436;-84
2023/10/13 10:39:46;;;;;;;1.02;0.70;;;;;;;;;;5084212;28;20070;-85
2023/10/13 10:42:23;;;;;;;2.88;1.23;;;;;;;;;;5079184;28;20035;-85
2023/10/13 10:45:05;;;;;;;0.73;0.63;;;;;;;;;;5072584;28;20027;-85
2023/10/13 10:47:31;;;;;;;1.15;0.50;;;;;;;;;;5078511;28;20040;-83
2023/10/13 10:50:07;;;;;;;1.35;1.10;;;;;;;;;;5076494;28;20407;-84
2023/10/13 10:52:37;;;;;;;2.13;1.17;;;;;;;;;;5075764;28;20043;-84
2023/10/13 10:55:13;;;;;;;0.65;0.65;;;;;;;;;;5095596;28;20043;-83
2023/10/13 10:57:42;;;;;;;3.20;0.90;;;;;;;;;;5080212;28;20484;-84
2023/10/13 11:00:21;;;;;;;1.23;0.93;;;;;;;;;;5080405;28;20028;-83
2023/10/13 11:02:56;;;;;;;2.15;0.90;;;;;;;;;;5081084;28;20032;-84
2023/10/13 11:05:32;;;;;;;1.58;0.90;;;;;;;;;;5083270;28;20020;-85
2023/10/13 11:07:58;;;;;;;2.85;1.13;;;;;;;;;;5080363;28;20016;-84
2023/10/13 11:10:27;;;;;;;1.27;0.93;;;;;;;;;;5082686;28;20027;-84
2023/10/13 11:12:56;;;;;;;1.23;1.05;;;;;;;;;;5080873;28;20032;-85
2023/10/13 11:15:22;;;;;;;1.60;1.02;;;;;;;;;;5077018;28;20035;-85
2023/10/13 11:17:58;;;;;;;0.80;0.60;;;;;;;;;;5088784;28;20548;-85
2023/10/13 11:20:33;;;;;;;0.75;0.60;;;;;;;;;;5080249;28;20107;-85
2023/10/13 11:23:04;;;;;;;3.70;1.10;;;;;;;;;;5072446;28;20024;-82
2023/10/13 11:25:34;;;;;;;1.67;0.68;;;;;;;;;;5079679;28;20383;-84
2023/10/13 11:28:17;;;;;;;1.38;0.93;;;;;;;;;;5079860;28;20115;-85
2023/10/13 11:30:53;;;;;;;6.30;1.30;;;;;;;;;;5074872;28;20066;-86
2023/10/13 11:33:23;;;;;;;1.17;0.80;;;;;;;;;;5078510;28;20025;-85
2023/10/13 11:35:55;;;;;;;2.30;0.73;;;;;;;;;;5076339;28;20108;-84
2023/10/13 11:38:26;;;;;;;0.52;0.40;;;;;;;;;;5075524;28;20026;-84
2023/10/13 11:41:21;;;;;;;1.00;0.90;;;;;;;;;;5084677;28;20042;-85
2023/10/13 11:47:16;;;;;;;;;;;;;;;;;;5083215;28;20065;-84
2023/10/13 11:49:17;;;;;;;1.90;0.98;;;;;;;;;;5073747;28;21817;-83
2023/10/13 11:51:46;;;;;;;1.48;0.65;;;;;;;;;;5078533;28;20048;-85
2023/10/13 11:54:17;;;;;;;1.50;0.80;;;;;;;;;;5077625;28;20415;-84
2023/10/13 11:56:43;;;;;;;3.80;1.33;;;;;;;;;;5078003;28;20028;-84
2023/10/13 11:59:16;;;;;;;1.80;0.95;;;;;;;;;;5081454;28;20030;-84
2023/10/13 12:07:14;;;;;;;7.72;1.30;;;;;;;;;;5078081;28;20029;-85
2023/10/13 12:12:28;;;;;;;3.95;1.00;;;;;;;;;;5079338;28;20109;-85
2023/10/13 12:14:55;;;;;;;2.53;1.08;;;;;;;;;;5079915;28;20055;-85
2023/10/13 12:17:39;;;;;;;1.52;0.70;;;;;;;;;;5075740;28;20472;-84
2023/10/13 12:20:10;;;;;;;7.65;0.60;;;;;;;;;;5080689;28;20078;-86
2023/10/13 12:22:39;;;;;;;1.38;0.68;;;;;;;;;;5077752;28;20029;-86
2023/10/13 12:25:25;;;;;;;0.80;0.65;;;;;;;;;;5075957;28;20024;-85
2023/10/13 12:27:56;;;;;;;1.10;0.60;;;;;;;;;;5078690;28;20037;-86
2023/10/13 12:30:48;;;;;;;0.50;0.50;;;;;;;;;;5079473;28;20036;-83
2023/10/13 12:33:16;;;;;;;3.88;0.93;;;;;;;;;;5070601;28;20027;-85
2023/10/13 12:36:03;;;;;;;2.63;0.70;;;;;;;;;;5077202;28;20066;-85
2023/10/13 12:38:51;;;;;;;0.88;0.85;;;;;;;;;;5073376;28;20032;-86
2023/10/13 12:52:15;;;;;;;1.92;1.23;;;;;;;;;;5073655;28;20039;-85
2023/10/13 12:54:46;;;;;;;1.13;0.85;;;;;;;;;;5075970;28;20029;-85
2023/10/13 12:57:13;;;;;;;1.77;0.98;;;;;;;;;;5079360;28;20032;-85
2023/10/13 12:59:38;;;;;;;1.20;0.77;;;;;;;;;;5083257;28;20039;-81
2023/10/13 13:02:07;;;;;;;1.70;0.88;;;;;;;;;;5080630;28;20025;-85
2023/10/13 13:04:36;;;;;;;1.77;0.90;;;;;;;;;;5076714;28;20040;-86
2023/10/13 13:07:03;;;;;;;;;;;;;;;;;;5074902;28;20036;-86
2023/10/13 13:09:30;;;;;;;2.17;0.85;;;;;;;;;;5068989;28;19916;-85
2023/10/13 13:11:57;;;;;;;1.05;0.73;;;;;;;;;;5075445;28;20032;-85
2023/10/13 13:14:28;;;;;;;3.60;1.23;;;;;;;;;;5081251;28;20036;-85
2023/10/13 13:17:05;;;;;;;2.50;1.42;;;;;;;;;;5069103;28;20027;-86
2023/10/13 13:19:36;;;;;;;2.45;1.30;;;;;;;;;;5077446;28;20036;-86
2023/10/13 13:22:11;;;;;;;2.90;1.20;;;;;;;;;;5074927;28;20031;-86
2023/10/13 13:24:46;;;;;;;3.38;1.05;;;;;;;;;;5067609;28;20484;-83
2023/10/13 13:27:18;;;;;;;1.40;0.88;;;;;;;;;;5070926;28;20483;-83
2023/10/13 13:29:44;;;;;;;1.13;0.93;;;;;;;;;;5068330;28;20033;-82
2023/10/13 13:32:24;;;;;;;2.10;1.25;;;;;;;;;;5069676;28;20043;-84
2023/10/13 13:35:07;;;;;;;2.15;0.90;;;;;;;;;;5074337;28;20547;-85
2023/10/13 13:37:33;;;;;;;6.45;0.90;;;;;;;;;;5074338;28;20449;-84
2023/10/13 13:40:21;;;;;;;2.72;0.90;;;;;;;;;;5068729;28;20061;-84
2023/10/13 13:42:47;;;;;;;3.22;0.95;;;;;;;;;;5071604;28;20040;-85
2023/10/13 13:45:27;;;;;;;1.95;0.82;;;;;;;;;;5069729;28;20033;-84
2023/10/13 13:47:53;;;;;;;8.05;0.70;;;;;;;;;;5071392;28;20388;-85
2023/10/13 13:50:26;;;;;;;2.53;1.50;;;;;;;;;;5073792;28;20039;-85
2023/10/13 13:52:55;;;;;;;6.88;1.90;;;;;;;;;;5073170;28;20036;-84
2023/10/13 13:55:21;;;;;;;2.35;0.60;;;;;;;;;;5071863;28;20032;-84
2023/10/13 13:57:50;;;;;;;0.98;0.80;;;;;;;;;;5069383;28;20056;-84
2023/10/13 14:00:36;;;;;;;1.15;0.70;;;;;;;;;;5072487;28;20013;-84
2023/10/13 14:03:05;;;;;;;1.67;1.05;;;;;;;;;;5083460;28;20021;-84
2023/10/13 14:05:31;;;;;;;1.35;0.82;;;;;;;;;;5075233;28;20028;-83
2023/10/13 14:07:56;;;;;;;1.88;1.00;;;;;;;;;;5080107;28;20442;-84
2023/10/13 14:11:13;;;;;;;1.30;0.80;;;;;;;;;;5082649;28;20377;-82
2023/10/13 14:13:22;;;;;;;1.65;0.95;;;;;;;;;;5076273;28;20029;-83
2023/10/13 14:15:47;;;;;;;3.27;1.23;;;;;;;;;;5082612;28;20024;-83
2023/10/13 14:18:16;;;;;;;0.80;0.60;;;;;;;;;;5073102;28;20062;-83
2023/10/13 14:20:42;;;;;;;1.63;1.20;;;;;;;;;;5086995;28;20024;-82
2023/10/13 14:23:14;;;;;;;1.88;0.95;;;;;;;;;;5077401;28;20624;-83
2023/10/13 14:25:44;;;;;;;2.67;0.98;;;;;;;;;;5075683;28;20052;-83
2023/10/13 14:28:11;;;;;;;2.33;1.13;;;;;;;;;;5082189;28;20035;-85
2023/10/13 14:30:37;;;;;;;2.33;1.10;;;;;;;;;;5078204;28;20045;-82
2023/10/13 14:33:02;;;;;;;1.63;0.82;;;;;;;;;;5076451;28;20088;-83
2023/10/13 14:35:28;;;;;;;2.50;0.95;;;;;;;;;;5078422;28;20039;-82
2023/10/13 14:37:54;;;;;;;3.92;1.50;;;;;;;;;;5079849;28;20494;-84
2023/10/13 14:40:21;;;;;;;7.13;1.13;;;;;;;;;;5084033;28;20020;-83
2023/10/13 14:42:47;;;;;;;2.80;0.98;;;;;;;;;;5082195;28;20487;-82
2023/10/13 14:45:13;;;;;;;2.42;0.82;;;;;;;;;;5079521;28;20396;-82
2023/10/13 14:47:43;;;;;;;4.50;1.30;;;;;;;;;;5079574;28;20051;-84
2023/10/13 14:50:21;;;;;;;2.03;1.02;;;;;;;;;;5086719;28;20380;-83
2023/10/13 14:52:48;;;;;;;2.30;1.23;;;;;;;;;;5081620;28;20028;-83
2023/10/13 14:55:20;;;;;;;3.65;1.75;;;;;;;;;;5079589;28;20425;-82
2023/10/13 14:57:47;;;;;;;1.83;1.67;;;;;;;;;;5077761;28;20029;-84
2023/10/13 15:00:14;;;;;;;1.65;1.17;;;;;;;;;;5080984;28;20430;-83
2023/10/13 15:02:42;;;;;;;1.00;0.90;;;;;;;;;;5077863;28;20032;-84
2023/10/13 15:05:16;;;;;;;2.50;1.05;;;;;;;;;;5083987;28;20070;-83
2023/10/13 15:07:45;;;;;;;5.93;1.23;;;;;;;;;;5072231;28;20036;-83
2023/10/13 15:10:14;;;;;;;1.43;0.70;;;;;;;;;;5079444;28;20031;-84
2023/10/13 15:12:40;;;;;;;;;;;;;;;;;;5077594;28;20396;-84
2023/10/13 15:15:13;;;;;;;6.00;1.20;;;;;;;;;;5081202;28;19950;-83
2023/10/13 15:17:39;;;;;;;1.33;0.55;;;;;;;;;;5077080;28;20043;-83
2023/10/13 15:20:08;;;;;;;2.08;1.25;;;;;;;;;;5084576;28;20020;-85
2023/10/13 15:22:34;;;;;;;1.98;1.10;;;;;;;;;;5078180;28;20476;-83
2023/10/13 15:25:20;;;;;;;1.70;0.75;;;;;;;;;;5082004;28;20031;-84
2023/10/13 15:27:57;;;;;;;3.42;1.55;;;;;;;;;;5078133;28;20098;-82
2023/10/13 15:30:30;;;;;;;1.60;1.13;;;;;;;;;;5080603;28;20111;-84
2023/10/13 15:32:57;;;;;;;0.93;0.57;;;;;;;;;;5079007;28;20040;-84
2023/10/13 15:35:28;;;;;;;4.20;1.58;;;;;;;;;;5078833;28;20016;-83
2023/10/13 15:37:55;;;;;;;3.97;1.33;;;;;;;;;;5082914;28;20035;-83
2023/10/13 15:40:21;;;;;;;1.33;1.00;;;;;;;;;;5080458;28;20376;-83
2023/10/13 15:42:46;;;;;;;4.10;1.40;;;;;;;;;;5075140;28;20383;-82
2023/10/13 15:45:19;;;;;;;2.25;1.20;;;;;;;;;;5072674;28;20042;-83
2023/10/13 15:47:48;;;;;;;1.70;0.90;;;;;;;;;;5089146;28;20148;-84
2023/10/13 15:50:20;;;;;;;2.50;1.87;;;;;;;;;;5076312;28;20456;-83
2023/10/13 15:52:46;;;;;;;2.92;1.45;;;;;;;;;;5079560;28;21552;-84
2023/10/13 15:55:13;;;;;;;1.63;1.08;;;;;;;;;;5076995;28;20044;-83
2023/10/13 15:57:40;;;;;;;3.08;1.75;;;;;;;;;;5076608;28;20028;-85
2023/10/13 16:00:23;;;;;;;1.85;1.10;;;;;;;;;;5082972;28;20096;-84
2023/10/13 16:02:58;;;;;;;1.77;0.95;;;;;;;;;;5075688;28;20380;-86
2023/10/13 16:05:34;;;;;;;1.17;1.00;;;;;;;;;;5077651;28;20051;-85
2023/10/13 16:08:00;;;;;;;1.40;0.80;;;;;;;;;;5085855;28;20050;-84
2023/10/13 16:10:26;;;;;;;2.72;1.55;;;;;;;;;;5073841;28;20032;-85
2023/10/13 16:12:53;;;;;;;3.65;1.80;;;;;;;;;;5074961;28;20430;-84
2023/10/13 16:15:21;;;;;;;0.82;0.82;;;;;;;;;;5075644;28;20490;-85
2023/10/13 16:17:53;;;;;;;5.97;1.40;;;;;;;;;;5082848;28;20031;-84
2023/10/13 16:20:20;;;;;;;2.45;0.90;;;;;;;;;;5071129;28;20028;-86
2023/10/13 16:22:47;;;;;;;3.20;1.00;;;;;;;;;;5077256;28;20027;-83
2023/10/13 16:25:14;;;;;;;1.95;1.23;;;;;;;;;;5076653;28;20099;-84
2023/10/13 16:27:43;;;;;;;0.82;0.80;;;;;;;;;;5076448;28;20039;-85
2023/10/13 16:30:10;;;;;;;1.92;1.42;;;;;;;;;;5076528;28;20028;-87
2023/10/13 16:32:45;;;;;;;2.78;1.42;;;;;;;;;;5074668;28;20377;-87
2023/10/13 16:35:16;;;;;;;1.63;1.10;;;;;;;;;;5081177;28;20028;-86
2023/10/13 16:37:50;;;;;;;1.05;0.90;;;;;;;;;;5077728;28;20052;-87
2023/10/13 16:40:19;;;;;;;6.55;1.10;;;;;;;;;;5074635;28;20396;-85
2023/10/13 16:42:45;;;;;;;1.70;1.60;;;;;;;;;;5074993;28;20039;-84
2023/10/13 16:45:25;;;;;;;1.30;1.08;;;;;;;;;;5079920;28;20396;-83
2023/10/13 16:47:53;;;;;;;0.63;0.63;;;;;;;;;;5074121;28;20039;-83
2023/10/13 16:50:21;;;;;;;2.45;0.90;;;;;;;;;;5076822;28;20388;-84
2023/10/13 16:52:47;;;;;;;2.05;0.70;;;;;;;;;;5077938;28;20051;-85
2023/10/13 16:55:19;;;;;;;1.60;0.82;;;;;;;;;;5080556;28;20023;-81
2023/10/13 16:57:49;;;;;;;2.35;0.90;;;;;;;;;;5073219;28;20078;-83
2023/10/13 17:00:16;;;;;;;1.77;1.13;;;;;;;;;;5075661;28;20111;-83
2023/10/13 17:02:41;;;;;;;0.75;0.45;;;;;;;;;;5073001;28;21163;-84
2023/10/13 17:05:12;;;;;;;1.35;0.80;;;;;;;;;;5069283;28;20057;-84
2023/10/13 17:07:38;;;;;;;1.15;0.55;;;;;;;;;;5070175;28;20024;-83
2023/10/13 17:10:04;;;;;;;3.33;0.70;;;;;;;;;;5070421;28;20062;-83
2023/10/13 17:12:30;;;;;;;1.38;0.68;;;;;;;;;;5078520;28;20031;-82
2023/10/13 17:14:58;;;;;;;1.48;0.75;;;;;;;;;;5075466;28;20032;-82
2023/10/13 17:17:25;;;;;;;5.15;1.00;;;;;;;;;;5075695;28;20024;-83
2023/10/13 17:19:51;;;;;;;0.45;0.45;;;;;;;;;;5077939;28;20047;-82
2023/10/13 17:22:17;;;;;;;1.00;0.80;;;;;;;;;;5075525;28;20060;-82
2023/10/13 17:24:42;;;;;;;0.75;0.30;;;;;;;;;;5073956;28;20048;-83
2023/10/13 17:27:09;;;;;;;0.50;0.43;;;;;;;;;;5075644;28;20480;-84
2023/10/13 17:29:35;;;;;;;1.70;0.63;;;;;;;;;;5077458;28;20021;-85
2023/10/13 17:32:02;;;;;;;1.80;0.80;;;;;;;;;;5076285;28;20020;-85
2023/10/13 17:34:29;;;;;;;1.33;1.08;;;;;;;;;;5071117;28;20028;-85
2023/10/13 17:36:58;;;;;;;5.95;0.85;;;;;;;;;;5073744;28;20395;-85
2023/10/13 17:39:24;;;;;;;1.73;0.80;;;;;;;;;;5080465;28;20024;-83
2023/10/13 17:41:51;;;;;;;2.40;1.20;;;;;;;;;;5076885;28;20016;-84
2023/10/13 17:44:17;;;;;;;3.92;2.15;;;;;;;;;;5073856;28;20039;-85
2023/10/13 17:46:42;;;;;;;1.58;0.90;;;;;;;;;;5077126;28;20064;-82
2023/10/13 17:49:08;;;;;;;0.73;0.55;;;;;;;;;;5074805;28;20029;-84
2023/10/13 17:51:33;;;;;;;2.15;1.45;;;;;;;;;;5073536;28;20024;-83
2023/10/13 17:53:59;;;;;;;2.22;1.15;;;;;;;;;;5075101;28;20031;-83
2023/10/13 17:56:24;;;;;;;7.22;1.48;;;;;;;;;;5080235;28;20498;-83
2023/10/13 17:58:51;;;;;;;3.00;1.70;;;;;;;;;;5072651;28;20024;-83
2023/10/13 18:01:17;;;;;;;0.73;0.50;;;;;;;;;;5073867;28;20024;-83
2023/10/13 18:03:53;;;;;;;5.30;1.38;;;;;;;;;;5078938;28;20055;-84
2023/10/13 18:06:22;;;;;;;3.55;1.15;;;;;;;;;;5081888;28;20028;-83
2023/10/13 18:08:50;;;;;;;1.48;0.55;;;;;;;;;;5080198;28;20054;-86
2023/10/13 18:11:17;;;;;;;2.88;0.93;;;;;;;;;;5075686;28;20528;-84
2023/10/13 18:13:44;;;;;;;7.13;0.80;;;;;;;;;;5079213;28;20078;-85
2023/10/13 18:16:24;;;;;;;2.53;1.25;;;;;;;;;;5080489;28;20031;-85
2023/10/13 18:18:55;;;;;;;;;;;;;;;;;;5079939;28;20472;-86
2023/10/13 18:21:24;;;;;;;7.18;0.98;;;;;;;;;;5075676;28;19912;-85
2023/10/13 18:23:52;;;;;;;0.60;0.60;;;;;;;;;;5081837;28;20496;-82
